sensor_id;sensor_type;location;lat;lon;timestamp;pressure;altitude;pressure_sealevel;temperature;humidity
28701;BME280;15877;52.344;16.790;2023-01-29T00:00:21;101681.35;;;3.46;62.89
28701;BME280;15877;52.344;16.790;2023-01-29T00:03:13;101679.75;;;3.48;62.73
28701;BME280;15877;52.344;16.790;2023-01-29T00:05:46;101681.13;;;3.39;63.05
28701;BME280;15877;52.344;16.790;2023-01-29T00:08:20;101676.98;;;3.44;62.96
28701;BME280;15877;52.344;16.790;2023-01-29T00:10:58;101669.30;;;3.42;62.95
28701;BME280;15877;52.344;16.790;2023-01-29T00:13:33;101645.65;;;3.32;63.03
28701;BME280;15877;52.344;16.790;2023-01-29T00:16:07;101648.85;;;3.42;62.87
28701;BME280;15877;52.344;16.790;2023-01-29T00:18:41;101656.36;;;3.45;62.75
28701;BME280;15877;52.344;16.790;2023-01-29T00:21:17;101650.98;;;3.52;62.46
28701;BME280;15877;52.344;16.790;2023-01-29T00:23:50;101639.06;;;3.42;62.57
28701;BME280;15877;52.344;16.790;2023-01-29T00:26:25;101636.98;;;3.44;62.47
28701;BME280;15877;52.344;16.790;2023-01-29T00:28:58;101632.57;;;3.57;62.15
28701;BME280;15877;52.344;16.790;2023-01-29T00:31:32;101628.33;;;3.52;62.16
28701;BME280;15877;52.344;16.790;2023-01-29T00:34:06;101620.72;;;3.42;62.47
28701;BME280;15877;52.344;16.790;2023-01-29T00:36:38;101618.86;;;3.42;62.54
28701;BME280;15877;52.344;16.790;2023-01-29T00:39:11;101619.30;;;3.22;62.73
28701;BME280;15877;52.344;16.790;2023-01-29T00:41:44;101619.29;;;3.16;62.94
28701;BME280;15877;52.344;16.790;2023-01-29T00:44:37;101623.93;;;3.33;62.64
28701;BME280;15877;52.344;16.790;2023-01-29T00:47:27;101617.91;;;3.30;62.49
28701;BME280;15877;52.344;16.790;2023-01-29T00:50:06;101610.56;;;3.36;62.37
28701;BME280;15877;52.344;16.790;2023-01-29T00:52:40;101608.80;;;3.38;62.25
28701;BME280;15877;52.344;16.790;2023-01-29T00:55:13;101607.33;;;3.41;62.15
28701;BME280;15877;52.344;16.790;2023-01-29T00:57:46;101616.06;;;3.41;62.13
28701;BME280;15877;52.344;16.790;2023-01-29T01:00:19;101613.09;;;3.42;61.97
28701;BME280;15877;52.344;16.790;2023-01-29T01:02:51;101614.08;;;3.42;62.05
28701;BME280;15877;52.344;16.790;2023-01-29T01:05:43;101606.53;;;3.26;62.75
28701;BME280;15877;52.344;16.790;2023-01-29T01:08:15;101612.02;;;3.32;62.84
28701;BME280;15877;52.344;16.790;2023-01-29T01:11:07;101617.19;;;3.30;62.93
28701;BME280;15877;52.344;16.790;2023-01-29T01:13:39;101621.34;;;3.34;62.67
28701;BME280;15877;52.344;16.790;2023-01-29T01:16:13;101620.56;;;3.41;62.37
28701;BME280;15877;52.344;16.790;2023-01-29T01:18:47;101624.52;;;3.36;62.44
28701;BME280;15877;52.344;16.790;2023-01-29T01:21:20;101620.86;;;3.19;63.18
28701;BME280;15877;52.344;16.790;2023-01-29T01:23:53;101615.19;;;3.27;63.07
28701;BME280;15877;52.344;16.790;2023-01-29T01:26:26;101592.66;;;3.15;63.08
28701;BME280;15877;52.344;16.790;2023-01-29T01:28:59;101608.55;;;3.20;63.35
28701;BME280;15877;52.344;16.790;2023-01-29T01:31:31;101613.52;;;3.17;63.47
28701;BME280;15877;52.344;16.790;2023-01-29T01:34:04;101604.83;;;3.20;63.29
28701;BME280;15877;52.344;16.790;2023-01-29T01:36:37;101598.80;;;3.11;63.57
28701;BME280;15877;52.344;16.790;2023-01-29T01:39:09;101585.19;;;3.02;63.60
28701;BME280;15877;52.344;16.790;2023-01-29T01:41:42;101604.58;;;3.15;63.46
28701;BME280;15877;52.344;16.790;2023-01-29T01:47:18;101613.31;;;3.08;63.69
28701;BME280;15877;52.344;16.790;2023-01-29T01:49:50;101610.02;;;2.99;64.14
28701;BME280;15877;52.344;16.790;2023-01-29T01:52:23;101602.58;;;2.97;64.18
28701;BME280;15877;52.344;16.790;2023-01-29T01:54:57;101599.79;;;3.02;64.17
28701;BME280;15877;52.344;16.790;2023-01-29T01:57:31;101605.61;;;3.09;63.89
28701;BME280;15877;52.344;16.790;2023-01-29T02:00:08;101600.73;;;2.84;64.76
28701;BME280;15877;52.344;16.790;2023-01-29T02:02:45;101600.12;;;2.95;64.59
28701;BME280;15877;52.344;16.790;2023-01-29T02:05:36;101602.27;;;3.09;64.04
28701;BME280;15877;52.344;16.790;2023-01-29T02:08:34;101593.72;;;2.99;64.32
28701;BME280;15877;52.344;16.790;2023-01-29T02:11:26;101587.62;;;3.00;64.23
28701;BME280;15877;52.344;16.790;2023-01-29T02:13:59;101595.98;;;2.98;64.37
28701;BME280;15877;52.344;16.790;2023-01-29T02:16:34;101597.86;;;3.10;64.07
28701;BME280;15877;52.344;16.790;2023-01-29T02:19:12;101594.73;;;2.96;64.34
28701;BME280;15877;52.344;16.790;2023-01-29T02:25:01;101590.86;;;3.14;63.93
28701;BME280;15877;52.344;16.790;2023-01-29T02:30:52;101593.52;;;2.87;65.05
28701;BME280;15877;52.344;16.790;2023-01-29T02:33:34;101589.84;;;2.97;64.98
28701;BME280;15877;52.344;16.790;2023-01-29T02:36:18;101594.99;;;2.98;64.94
28701;BME280;15877;52.344;16.790;2023-01-29T02:38:58;101591.14;;;2.91;65.15
28701;BME280;15877;52.344;16.790;2023-01-29T02:41:37;101577.59;;;2.90;65.39
28701;BME280;15877;52.344;16.790;2023-01-29T02:44:18;101579.23;;;3.05;65.03
28701;BME280;15877;52.344;16.790;2023-01-29T02:46:59;101585.04;;;2.99;65.21
28701;BME280;15877;52.344;16.790;2023-01-29T02:49:36;101586.27;;;2.87;65.54
28701;BME280;15877;52.344;16.790;2023-01-29T02:52:16;101559.19;;;2.75;65.73
28701;BME280;15877;52.344;16.790;2023-01-29T02:54:54;101574.36;;;2.78;65.74
28701;BME280;15877;52.344;16.790;2023-01-29T02:57:32;101582.66;;;2.84;65.79
28701;BME280;15877;52.344;16.790;2023-01-29T03:00:09;101587.69;;;3.04;64.98
28701;BME280;15877;52.344;16.790;2023-01-29T03:02:49;101586.65;;;2.81;65.52
28701;BME280;15877;52.344;16.790;2023-01-29T03:05:29;101580.77;;;2.90;65.10
28701;BME280;15877;52.344;16.790;2023-01-29T03:08:09;101573.88;;;2.88;65.03
28701;BME280;15877;52.344;16.790;2023-01-29T03:10:47;101572.11;;;2.88;65.17
28701;BME280;15877;52.344;16.790;2023-01-29T03:13:28;101566.95;;;2.88;65.23
28701;BME280;15877;52.344;16.790;2023-01-29T03:16:08;101568.69;;;2.92;64.95
28701;BME280;15877;52.344;16.790;2023-01-29T03:18:48;101570.70;;;2.87;65.10
28701;BME280;15877;52.344;16.790;2023-01-29T03:21:27;101572.45;;;2.79;65.53
28701;BME280;15877;52.344;16.790;2023-01-29T03:24:20;101560.56;;;2.91;65.20
28701;BME280;15877;52.344;16.790;2023-01-29T03:27:15;101560.13;;;2.84;64.88
28701;BME280;15877;52.344;16.790;2023-01-29T03:30:11;101552.91;;;2.95;64.72
28701;BME280;15877;52.344;16.790;2023-01-29T03:33:14;101554.79;;;2.94;64.71
28701;BME280;15877;52.344;16.790;2023-01-29T03:35:55;101548.70;;;2.98;64.68
28701;BME280;15877;52.344;16.790;2023-01-29T03:38:31;101545.77;;;2.87;64.64
28701;BME280;15877;52.344;16.790;2023-01-29T03:41:07;101539.84;;;2.73;65.21
28701;BME280;15877;52.344;16.790;2023-01-29T03:43:49;101534.81;;;2.85;64.93
28701;BME280;15877;52.344;16.790;2023-01-29T03:46:28;101525.69;;;2.99;64.45
28701;BME280;15877;52.344;16.790;2023-01-29T03:49:09;101524.04;;;2.78;64.89
28701;BME280;15877;52.344;16.790;2023-01-29T03:51:54;101519.20;;;2.95;64.67
28701;BME280;15877;52.344;16.790;2023-01-29T03:54:37;101525.25;;;2.71;65.18
28701;BME280;15877;52.344;16.790;2023-01-29T03:57:15;101522.30;;;2.77;65.16
28701;BME280;15877;52.344;16.790;2023-01-29T03:59:55;101510.04;;;2.72;65.34
28701;BME280;15877;52.344;16.790;2023-01-29T04:02:59;101508.06;;;2.73;65.29
28701;BME280;15877;52.344;16.790;2023-01-29T04:05:37;101513.81;;;2.51;65.82
28701;BME280;15877;52.344;16.790;2023-01-29T04:08:27;101513.73;;;2.78;64.97
28701;BME280;15877;52.344;16.790;2023-01-29T04:11:08;101505.25;;;2.51;65.44
28701;BME280;15877;52.344;16.790;2023-01-29T04:13:43;101497.27;;;2.82;64.79
28701;BME280;15877;52.344;16.790;2023-01-29T04:16:23;101491.27;;;2.73;64.76
28701;BME280;15877;52.344;16.790;2023-01-29T04:19:12;101496.41;;;2.60;65.15
28701;BME280;15877;52.344;16.790;2023-01-29T04:21:46;101497.15;;;2.56;65.39
28701;BME280;15877;52.344;16.790;2023-01-29T04:24:20;101470.05;;;2.63;64.83
28701;BME280;15877;52.344;16.790;2023-01-29T04:26:59;101466.98;;;2.69;64.74
28701;BME280;15877;52.344;16.790;2023-01-29T04:29:42;101481.37;;;3.07;63.91
28701;BME280;15877;52.344;16.790;2023-01-29T04:32:24;101474.80;;;2.81;64.58
28701;BME280;15877;52.344;16.790;2023-01-29T04:35:12;101470.65;;;2.72;64.64
28701;BME280;15877;52.344;16.790;2023-01-29T04:37:55;101475.33;;;2.76;64.36
28701;BME280;15877;52.344;16.790;2023-01-29T04:40:38;101468.36;;;2.94;64.13
28701;BME280;15877;52.344;16.790;2023-01-29T04:43:19;101469.30;;;2.86;64.09
28701;BME280;15877;52.344;16.790;2023-01-29T04:46:05;101445.79;;;2.96;63.68
28701;BME280;15877;52.344;16.790;2023-01-29T04:48:48;101457.34;;;2.98;63.67
28701;BME280;15877;52.344;16.790;2023-01-29T04:51:31;101452.11;;;2.89;64.32
28701;BME280;15877;52.344;16.790;2023-01-29T04:54:11;101431.09;;;2.82;64.15
28701;BME280;15877;52.344;16.790;2023-01-29T04:56:52;101443.52;;;2.84;64.99
28701;BME280;15877;52.344;16.790;2023-01-29T04:59:30;101438.41;;;2.86;65.30
28701;BME280;15877;52.344;16.790;2023-01-29T05:02:04;101441.13;;;2.95;65.00
28701;BME280;15877;52.344;16.790;2023-01-29T05:04:41;101446.03;;;3.21;64.05
28701;BME280;15877;52.344;16.790;2023-01-29T05:07:17;101450.17;;;2.90;64.22
28701;BME280;15877;52.344;16.790;2023-01-29T05:09:51;101452.52;;;2.79;64.86
28701;BME280;15877;52.344;16.790;2023-01-29T05:12:25;101449.00;;;2.87;64.61
28701;BME280;15877;52.344;16.790;2023-01-29T05:15:02;101440.31;;;3.10;64.13
28701;BME280;15877;52.344;16.790;2023-01-29T05:17:36;101439.34;;;2.93;64.29
28701;BME280;15877;52.344;16.790;2023-01-29T05:20:11;101430.61;;;3.20;63.67
28701;BME280;15877;52.344;16.790;2023-01-29T05:22:45;101423.11;;;3.17;63.78
28701;BME280;15877;52.344;16.790;2023-01-29T05:25:23;101417.35;;;2.96;64.28
28701;BME280;15877;52.344;16.790;2023-01-29T05:27:56;101429.56;;;3.15;63.94
28701;BME280;15877;52.344;16.790;2023-01-29T05:30:43;101434.52;;;3.20;63.67
28701;BME280;15877;52.344;16.790;2023-01-29T05:33:18;101440.72;;;3.39;63.33
28701;BME280;15877;52.344;16.790;2023-01-29T05:35:51;101434.25;;;3.23;63.63
28701;BME280;15877;52.344;16.790;2023-01-29T05:38:24;101430.98;;;3.06;64.34
28701;BME280;15877;52.344;16.790;2023-01-29T05:40:58;101427.23;;;3.01;64.63
28701;BME280;15877;52.344;16.790;2023-01-29T05:43:31;101422.64;;;2.94;65.11
28701;BME280;15877;52.344;16.790;2023-01-29T05:46:03;101427.83;;;3.08;64.69
28701;BME280;15877;52.344;16.790;2023-01-29T05:48:37;101437.13;;;2.99;64.84
28701;BME280;15877;52.344;16.790;2023-01-29T05:51:09;101443.08;;;2.93;65.08
28701;BME280;15877;52.344;16.790;2023-01-29T05:53:42;101429.21;;;2.84;65.44
28701;BME280;15877;52.344;16.790;2023-01-29T05:56:14;101450.43;;;2.86;65.43
28701;BME280;15877;52.344;16.790;2023-01-29T05:58:47;101450.67;;;3.01;65.25
28701;BME280;15877;52.344;16.790;2023-01-29T06:01:21;101443.41;;;3.08;65.04
28701;BME280;15877;52.344;16.790;2023-01-29T06:03:54;101440.98;;;2.87;65.87
28701;BME280;15877;52.344;16.790;2023-01-29T06:06:27;101439.01;;;2.88;65.85
28701;BME280;15877;52.344;16.790;2023-01-29T06:09:00;101446.42;;;2.98;65.67
28701;BME280;15877;52.344;16.790;2023-01-29T06:11:35;101456.02;;;2.99;65.56
28701;BME280;15877;52.344;16.790;2023-01-29T06:14:07;101466.19;;;2.85;65.78
28701;BME280;15877;52.344;16.790;2023-01-29T06:16:40;101465.90;;;2.75;66.47
28701;BME280;15877;52.344;16.790;2023-01-29T06:19:12;101462.58;;;2.58;67.97
28701;BME280;15877;52.344;16.790;2023-01-29T06:21:45;101463.48;;;2.62;68.54
28701;BME280;15877;52.344;16.790;2023-01-29T06:24:25;101462.88;;;2.48;69.66
28701;BME280;15877;52.344;16.790;2023-01-29T06:26:57;101454.36;;;2.42;70.50
28701;BME280;15877;52.344;16.790;2023-01-29T06:29:30;101457.50;;;2.62;70.39
28701;BME280;15877;52.344;16.790;2023-01-29T06:32:03;101440.94;;;2.60;70.49
28701;BME280;15877;52.344;16.790;2023-01-29T06:34:35;101455.67;;;3.01;69.65
28701;BME280;15877;52.344;16.790;2023-01-29T06:37:08;101466.23;;;2.81;70.81
28701;BME280;15877;52.344;16.790;2023-01-29T06:39:41;101480.86;;;2.62;71.62
28701;BME280;15877;52.344;16.790;2023-01-29T06:42:13;101473.64;;;2.62;71.93
28701;BME280;15877;52.344;16.790;2023-01-29T06:44:58;101469.09;;;2.86;71.01
28701;BME280;15877;52.344;16.790;2023-01-29T06:47:31;101469.94;;;2.77;71.54
28701;BME280;15877;52.344;16.790;2023-01-29T06:50:04;101479.67;;;2.88;71.42
28701;BME280;15877;52.344;16.790;2023-01-29T06:52:37;101459.11;;;2.52;72.08
28701;BME280;15877;52.344;16.790;2023-01-29T06:55:10;101471.38;;;2.54;72.33
28701;BME280;15877;52.344;16.790;2023-01-29T06:57:43;101464.81;;;2.52;72.86
28701;BME280;15877;52.344;16.790;2023-01-29T07:00:18;101469.99;;;2.77;72.08
28701;BME280;15877;52.344;16.790;2023-01-29T07:02:50;101463.10;;;2.75;72.39
28701;BME280;15877;52.344;16.790;2023-01-29T07:05:23;101458.23;;;2.52;73.12
28701;BME280;15877;52.344;16.790;2023-01-29T07:07:55;101451.40;;;2.63;73.19
28701;BME280;15877;52.344;16.790;2023-01-29T07:10:28;101451.29;;;2.76;72.80
28701;BME280;15877;52.344;16.790;2023-01-29T07:13:01;101450.43;;;2.86;72.26
28701;BME280;15877;52.344;16.790;2023-01-29T07:15:34;101444.64;;;2.50;73.26
28701;BME280;15877;52.344;16.790;2023-01-29T07:18:08;101443.23;;;2.63;72.96
28701;BME280;15877;52.344;16.790;2023-01-29T07:20:43;101445.02;;;2.76;72.63
28701;BME280;15877;52.344;16.790;2023-01-29T07:23:15;101436.31;;;2.76;72.91
28701;BME280;15877;52.344;16.790;2023-01-29T07:25:48;101442.14;;;2.81;72.49
28701;BME280;15877;52.344;16.790;2023-01-29T07:28:21;101433.94;;;2.78;72.59
28701;BME280;15877;52.344;16.790;2023-01-29T07:30:57;101427.58;;;2.94;72.17
28701;BME280;15877;52.344;16.790;2023-01-29T07:33:30;101426.01;;;2.97;72.11
28701;BME280;15877;52.344;16.790;2023-01-29T07:36:08;101423.02;;;3.20;71.34
28701;BME280;15877;52.344;16.790;2023-01-29T07:38:40;101421.35;;;3.12;71.56
28701;BME280;15877;52.344;16.790;2023-01-29T07:41:13;101421.13;;;2.91;72.16
28701;BME280;15877;52.344;16.790;2023-01-29T07:43:48;101420.17;;;2.93;72.43
28701;BME280;15877;52.344;16.790;2023-01-29T07:46:20;101403.38;;;3.04;71.65
28701;BME280;15877;52.344;16.790;2023-01-29T07:48:52;101417.64;;;3.05;71.81
28701;BME280;15877;52.344;16.790;2023-01-29T07:51:25;101412.88;;;2.89;72.23
28701;BME280;15877;52.344;16.790;2023-01-29T07:53:57;101402.09;;;2.55;72.98
28701;BME280;15877;52.344;16.790;2023-01-29T07:56:30;101431.31;;;2.58;73.43
28701;BME280;15877;52.344;16.790;2023-01-29T07:59:03;101415.58;;;2.57;73.20
28701;BME280;15877;52.344;16.790;2023-01-29T08:01:35;101439.39;;;2.54;73.43
28701;BME280;15877;52.344;16.790;2023-01-29T08:04:08;101443.32;;;2.58;73.78
28701;BME280;15877;52.344;16.790;2023-01-29T08:06:40;101450.10;;;2.67;73.26
28701;BME280;15877;52.344;16.790;2023-01-29T08:09:13;101450.70;;;2.62;73.21
28701;BME280;15877;52.344;16.790;2023-01-29T08:11:46;101455.67;;;2.55;73.71
28701;BME280;15877;52.344;16.790;2023-01-29T08:14:19;101452.02;;;2.39;74.35
28701;BME280;15877;52.344;16.790;2023-01-29T08:16:51;101451.82;;;2.51;74.02
28701;BME280;15877;52.344;16.790;2023-01-29T08:19:24;101451.54;;;2.60;73.49
28701;BME280;15877;52.344;16.790;2023-01-29T08:21:56;101452.18;;;2.31;74.27
28701;BME280;15877;52.344;16.790;2023-01-29T08:24:30;101455.08;;;2.33;74.83
28701;BME280;15877;52.344;16.790;2023-01-29T08:27:22;101444.91;;;2.52;74.15
28701;BME280;15877;52.344;16.790;2023-01-29T08:29:55;101426.71;;;2.34;74.53
28701;BME280;15877;52.344;16.790;2023-01-29T08:32:27;101444.11;;;2.69;74.05
28701;BME280;15877;52.344;16.790;2023-01-29T08:35:00;101447.85;;;2.81;73.43
28701;BME280;15877;52.344;16.790;2023-01-29T08:37:32;101440.53;;;2.77;73.55
28701;BME280;15877;52.344;16.790;2023-01-29T08:40:06;101433.63;;;2.87;73.68
28701;BME280;15877;52.344;16.790;2023-01-29T08:42:41;101429.02;;;2.92;73.02
28701;BME280;15877;52.344;16.790;2023-01-29T08:45:14;101414.67;;;2.94;72.93
28701;BME280;15877;52.344;16.790;2023-01-29T08:47:48;101410.34;;;3.00;72.86
28701;BME280;15877;52.344;16.790;2023-01-29T08:50:20;101402.06;;;3.08;72.57
28701;BME280;15877;52.344;16.790;2023-01-29T08:52:57;101396.44;;;3.25;71.99
28701;BME280;15877;52.344;16.790;2023-01-29T08:55:30;101398.11;;;3.33;71.80
28701;BME280;15877;52.344;16.790;2023-01-29T08:58:04;101405.86;;;3.19;72.21
28701;BME280;15877;52.344;16.790;2023-01-29T09:00:37;101402.95;;;3.08;72.86
28701;BME280;15877;52.344;16.790;2023-01-29T09:03:10;101382.90;;;2.88;73.38
28701;BME280;15877;52.344;16.790;2023-01-29T09:05:43;101404.75;;;3.14;73.17
28701;BME280;15877;52.344;16.790;2023-01-29T09:08:16;101406.80;;;3.26;72.82
28701;BME280;15877;52.344;16.790;2023-01-29T09:10:49;101400.88;;;3.18;73.00
28701;BME280;15877;52.344;16.790;2023-01-29T09:13:23;101398.91;;;3.40;72.44
28701;BME280;15877;52.344;16.790;2023-01-29T09:15:59;101404.65;;;3.28;72.65
28701;BME280;15877;52.344;16.790;2023-01-29T09:18:32;101405.30;;;3.32;72.58
28701;BME280;15877;52.344;16.790;2023-01-29T09:21:06;101409.85;;;3.39;72.50
28701;BME280;15877;52.344;16.790;2023-01-29T09:23:37;101408.34;;;3.32;72.80
28701;BME280;15877;52.344;16.790;2023-01-29T09:26:10;101404.41;;;3.16;73.36
28701;BME280;15877;52.344;16.790;2023-01-29T09:28:42;101404.34;;;3.18;73.52
28701;BME280;15877;52.344;16.790;2023-01-29T09:31:16;101401.88;;;3.36;72.97
28701;BME280;15877;52.344;16.790;2023-01-29T09:33:49;101392.71;;;3.42;72.85
28701;BME280;15877;52.344;16.790;2023-01-29T09:36:22;101394.68;;;3.53;72.34
28701;BME280;15877;52.344;16.790;2023-01-29T09:38:56;101405.19;;;3.24;73.55
28701;BME280;15877;52.344;16.790;2023-01-29T09:41:36;101406.71;;;3.39;73.08
28701;BME280;15877;52.344;16.790;2023-01-29T09:44:18;101408.04;;;3.47;72.62
28701;BME280;15877;52.344;16.790;2023-01-29T09:46:55;101403.20;;;3.31;72.90
28701;BME280;15877;52.344;16.790;2023-01-29T09:49:33;101399.39;;;3.12;73.65
28701;BME280;15877;52.344;16.790;2023-01-29T09:52:13;101398.86;;;3.04;74.39
28701;BME280;15877;52.344;16.790;2023-01-29T09:54:56;101397.09;;;2.75;75.27
28701;BME280;15877;52.344;16.790;2023-01-29T09:57:44;101405.08;;;2.71;75.63
28701;BME280;15877;52.344;16.790;2023-01-29T10:00:21;101400.14;;;2.83;75.81
28701;BME280;15877;52.344;16.790;2023-01-29T10:03:09;101397.35;;;2.85;75.56
28701;BME280;15877;52.344;16.790;2023-01-29T10:06:06;101397.95;;;3.02;75.24
28701;BME280;15877;52.344;16.790;2023-01-29T10:11:41;101385.24;;;3.00;75.11
28701;BME280;15877;52.344;16.790;2023-01-29T10:14:21;101367.38;;;2.86;74.71
28701;BME280;15877;52.344;16.790;2023-01-29T10:17:07;101377.27;;;2.81;75.23
28701;BME280;15877;52.344;16.790;2023-01-29T10:19:54;101373.67;;;2.89;74.84
28701;BME280;15877;52.344;16.790;2023-01-29T10:22:49;101365.14;;;2.96;74.71
28701;BME280;15877;52.344;16.790;2023-01-29T10:26:18;101363.80;;;2.92;74.71
28701;BME280;15877;52.344;16.790;2023-01-29T10:30:16;101352.31;;;2.85;75.17
28701;BME280;15877;52.344;16.790;2023-01-29T10:34:11;101351.38;;;2.95;74.63
28701;BME280;15877;52.344;16.790;2023-01-29T10:37:38;101343.00;;;2.83;74.97
28701;BME280;15877;52.344;16.790;2023-01-29T10:40:21;101337.73;;;2.78;75.30
28701;BME280;15877;52.344;16.790;2023-01-29T10:43:02;101334.69;;;2.85;75.34
28701;BME280;15877;52.344;16.790;2023-01-29T10:45:42;101333.81;;;2.91;75.24
28701;BME280;15877;52.344;16.790;2023-01-29T10:48:42;101334.77;;;2.82;75.62
28701;BME280;15877;52.344;16.790;2023-01-29T10:51:35;101313.51;;;2.86;75.17
28701;BME280;15877;52.344;16.790;2023-01-29T10:54:25;101325.11;;;2.87;75.60
28701;BME280;15877;52.344;16.790;2023-01-29T10:57:12;101316.05;;;2.91;75.54
28701;BME280;15877;52.344;16.790;2023-01-29T11:00:00;101301.46;;;2.91;75.41
28701;BME280;15877;52.344;16.790;2023-01-29T11:02:44;101306.69;;;2.81;76.21
28701;BME280;15877;52.344;16.790;2023-01-29T11:05:24;101302.64;;;2.84;76.07
28701;BME280;15877;52.344;16.790;2023-01-29T11:08:05;101305.80;;;3.10;75.51
28701;BME280;15877;52.344;16.790;2023-01-29T11:10:43;101299.77;;;3.08;75.16
28701;BME280;15877;52.344;16.790;2023-01-29T11:13:19;101280.88;;;2.96;75.30
28701;BME280;15877;52.344;16.790;2023-01-29T11:15:55;101295.23;;;3.17;74.98
28701;BME280;15877;52.344;16.790;2023-01-29T11:18:49;101301.50;;;2.93;75.85
28701;BME280;15877;52.344;16.790;2023-01-29T11:21:22;101308.05;;;3.09;75.47
28701;BME280;15877;52.344;16.790;2023-01-29T11:24:10;101305.88;;;3.12;75.33
28701;BME280;15877;52.344;16.790;2023-01-29T11:26:45;101286.61;;;2.99;75.67
28701;BME280;15877;52.344;16.790;2023-01-29T11:29:44;101286.90;;;2.92;76.22
28701;BME280;15877;52.344;16.790;2023-01-29T11:32:27;101277.23;;;3.04;75.82
28701;BME280;15877;52.344;16.790;2023-01-29T11:35:19;101272.66;;;2.95;75.99
28701;BME280;15877;52.344;16.790;2023-01-29T11:37:53;101279.52;;;2.85;76.31
28701;BME280;15877;52.344;16.790;2023-01-29T11:40:43;101270.70;;;3.10;75.98
28701;BME280;15877;52.344;16.790;2023-01-29T11:43:27;101256.92;;;3.19;75.54
28701;BME280;15877;52.344;16.790;2023-01-29T11:46:13;101247.69;;;3.11;76.02
28701;BME280;15877;52.344;16.790;2023-01-29T11:48:50;101245.73;;;2.97;76.63
28701;BME280;15877;52.344;16.790;2023-01-29T11:51:36;101235.30;;;3.14;76.39
28701;BME280;15877;52.344;16.790;2023-01-29T11:54:15;101206.56;;;3.15;76.01
28701;BME280;15877;52.344;16.790;2023-01-29T11:56:53;101224.41;;;3.22;75.82
28701;BME280;15877;52.344;16.790;2023-01-29T11:59:36;101224.77;;;3.24;75.71
28701;BME280;15877;52.344;16.790;2023-01-29T12:02:22;101226.61;;;3.15;75.96
28701;BME280;15877;52.344;16.790;2023-01-29T12:05:22;101228.61;;;2.96;76.70
28701;BME280;15877;52.344;16.790;2023-01-29T12:07:58;101216.19;;;3.05;76.70
28701;BME280;15877;52.344;16.790;2023-01-29T12:10:35;101206.37;;;3.09;76.61
28701;BME280;15877;52.344;16.790;2023-01-29T12:13:24;101175.45;;;3.18;75.52
28701;BME280;15877;52.344;16.790;2023-01-29T12:16:14;101207.33;;;3.38;75.18
28701;BME280;15877;52.344;16.790;2023-01-29T12:18:55;101201.48;;;3.22;75.99
28701;BME280;15877;52.344;16.790;2023-01-29T12:21:38;101207.41;;;3.28;76.11
28701;BME280;15877;52.344;16.790;2023-01-29T12:24:24;101207.09;;;3.53;75.30
28701;BME280;15877;52.344;16.790;2023-01-29T12:27:06;101203.78;;;3.50;75.39
28701;BME280;15877;52.344;16.790;2023-01-29T12:29:45;101195.52;;;3.35;75.75
28701;BME280;15877;52.344;16.790;2023-01-29T12:32:28;101195.67;;;3.28;76.35
28701;BME280;15877;52.344;16.790;2023-01-29T12:35:08;101197.30;;;3.36;76.30
28701;BME280;15877;52.344;16.790;2023-01-29T12:37:50;101196.73;;;3.23;76.98
28701;BME280;15877;52.344;16.790;2023-01-29T12:40:30;101195.33;;;3.40;76.88
28701;BME280;15877;52.344;16.790;2023-01-29T12:43:10;101177.83;;;3.41;76.76
28701;BME280;15877;52.344;16.790;2023-01-29T12:45:51;101182.63;;;3.25;77.33
28701;BME280;15877;52.344;16.790;2023-01-29T12:48:29;101180.88;;;3.25;77.49
28701;BME280;15877;52.344;16.790;2023-01-29T12:51:08;101179.42;;;3.31;77.51
28701;BME280;15877;52.344;16.790;2023-01-29T12:53:46;101175.10;;;3.43;77.17
28701;BME280;15877;52.344;16.790;2023-01-29T12:56:27;101176.23;;;3.19;77.72
28701;BME280;15877;52.344;16.790;2023-01-29T12:59:08;101172.04;;;3.28;77.64
28701;BME280;15877;52.344;16.790;2023-01-29T13:01:49;101170.15;;;3.37;77.52
28701;BME280;15877;52.344;16.790;2023-01-29T13:04:34;101173.94;;;3.51;77.02
28701;BME280;15877;52.344;16.790;2023-01-29T13:07:14;101160.55;;;3.33;76.96
28701;BME280;15877;52.344;16.790;2023-01-29T13:09:53;101171.19;;;3.41;77.03
28701;BME280;15877;52.344;16.790;2023-01-29T13:12:27;101147.73;;;3.20;77.34
28701;BME280;15877;52.344;16.790;2023-01-29T13:15:04;101161.63;;;3.28;77.47
28701;BME280;15877;52.344;16.790;2023-01-29T13:17:43;101149.73;;;3.22;77.80
28701;BME280;15877;52.344;16.790;2023-01-29T13:20:22;101142.67;;;3.13;78.34
28701;BME280;15877;52.344;16.790;2023-01-29T13:23:01;101135.20;;;3.24;78.30
28701;BME280;15877;52.344;16.790;2023-01-29T13:25:37;101138.45;;;3.31;78.23
28701;BME280;15877;52.344;16.790;2023-01-29T13:28:17;101133.52;;;3.40;77.83
28701;BME280;15877;52.344;16.790;2023-01-29T13:31:10;101138.48;;;3.29;78.14
28701;BME280;15877;52.344;16.790;2023-01-29T13:33:52;101136.12;;;3.49;77.71
28701;BME280;15877;52.344;16.790;2023-01-29T13:36:29;101143.73;;;3.50;77.78
28701;BME280;15877;52.344;16.790;2023-01-29T13:39:05;101145.48;;;3.47;77.55
28701;BME280;15877;52.344;16.790;2023-01-29T13:41:41;101144.55;;;3.26;78.00
28701;BME280;15877;52.344;16.790;2023-01-29T13:44:22;101135.73;;;3.25;77.86
28701;BME280;15877;52.344;16.790;2023-01-29T13:46:57;101145.26;;;3.28;78.20
28701;BME280;15877;52.344;16.790;2023-01-29T13:49:34;101148.71;;;3.21;78.42
28701;BME280;15877;52.344;16.790;2023-01-29T13:52:33;101141.13;;;3.41;77.99
28701;BME280;15877;52.344;16.790;2023-01-29T13:55:20;101130.06;;;3.46;77.62
28701;BME280;15877;52.344;16.790;2023-01-29T13:57:55;101128.48;;;3.39;77.59
28701;BME280;15877;52.344;16.790;2023-01-29T14:00:57;101131.68;;;3.25;78.24
28701;BME280;15877;52.344;16.790;2023-01-29T14:03:51;101126.89;;;3.38;78.22